createdAt,value
2022-08-28T00:00:41.020Z,3.08
2022-08-28T00:03:11.754Z,2.90
2022-08-28T00:05:41.122Z,2.78
2022-08-28T00:08:10.587Z,3.10
2022-08-28T00:10:40.290Z,2.80
2022-08-28T00:13:09.352Z,3.00
2022-08-28T00:15:39.282Z,3.13
2022-08-28T00:18:08.386Z,2.85
2022-08-28T00:20:39.478Z,3.08
2022-08-28T00:23:08.111Z,3.20
2022-08-28T00:25:36.495Z,3.10
2022-08-28T00:28:10.498Z,2.83
2022-08-28T00:30:46.345Z,2.97
2022-08-28T00:33:19.250Z,3.15
2022-08-28T00:35:49.624Z,3.80
2022-08-28T00:38:19.883Z,3.47
2022-08-28T00:40:50.405Z,3.30
2022-08-28T00:43:27.789Z,3.00
2022-08-28T00:45:55.681Z,3.30
2022-08-28T00:48:23.736Z,3.42
2022-08-28T00:51:19.276Z,3.67
2022-08-28T00:53:47.475Z,3.13
2022-08-28T00:56:18.069Z,3.47
2022-08-28T00:58:47.873Z,3.40
2022-08-28T01:01:16.210Z,3.40
2022-08-28T01:03:45.147Z,3.65
2022-08-28T01:06:16.200Z,3.27
2022-08-28T01:08:50.579Z,3.65
2022-08-28T01:11:20.668Z,3.28
2022-08-28T01:13:49.799Z,3.70
2022-08-28T01:16:20.510Z,2.97
2022-08-28T01:18:50.998Z,4.00
2022-08-28T01:21:29.368Z,4.22
2022-08-28T01:24:02.472Z,3.42
2022-08-28T01:26:31.474Z,3.72
2022-08-28T01:29:00.548Z,3.92
2022-08-28T01:31:31.382Z,3.30
2022-08-28T01:34:01.092Z,3.35
2022-08-28T01:36:30.316Z,3.60
2022-08-28T01:39:03.960Z,3.63
2022-08-28T01:41:31.895Z,3.37
2022-08-28T01:43:59.741Z,3.13
2022-08-28T01:46:28.228Z,3.60
2022-08-28T01:48:56.204Z,3.58
2022-08-28T01:51:25.813Z,3.50
2022-08-28T01:53:54.344Z,3.35
2022-08-28T01:56:23.913Z,3.42
2022-08-28T01:58:52.507Z,3.20
2022-08-28T02:01:22.505Z,3.10
2022-08-28T02:03:53.290Z,3.60
2022-08-28T02:06:21.655Z,3.50
2022-08-28T02:08:54.713Z,3.47
2022-08-28T02:11:24.939Z,3.40
2022-08-28T02:13:54.667Z,2.80
2022-08-28T02:16:24.847Z,2.70
2022-08-28T02:18:53.113Z,3.00
2022-08-28T02:21:21.844Z,3.50
2022-08-28T02:23:49.839Z,3.73
2022-08-28T02:26:18.329Z,3.13
2022-08-28T02:28:48.424Z,2.63
2022-08-28T02:31:16.387Z,3.10
2022-08-28T02:33:46.020Z,3.03
2022-08-28T02:36:15.795Z,3.00
2022-08-28T02:38:44.640Z,2.95
2022-08-28T02:41:13.671Z,3.30
2022-08-28T02:43:41.857Z,3.53
2022-08-28T02:46:11.605Z,3.27
2022-08-28T02:48:40.609Z,4.00
2022-08-28T02:51:12.892Z,3.25
2022-08-28T02:53:41.686Z,2.75
2022-08-28T02:56:10.517Z,3.00
2022-08-28T02:58:39.372Z,3.88
2022-08-28T03:01:10.198Z,3.23
2022-08-28T03:03:41.500Z,3.73
2022-08-28T03:06:10.488Z,3.40
2022-08-28T03:08:38.315Z,3.88
2022-08-28T03:11:06.291Z,3.30
2022-08-28T03:13:34.868Z,4.07
2022-08-28T03:16:04.738Z,3.27
2022-08-28T03:18:33.684Z,3.70
2022-08-28T03:21:03.012Z,3.90
2022-08-28T03:23:31.838Z,4.03
2022-08-28T03:26:02.113Z,4.17
2022-08-28T03:28:33.233Z,3.67
2022-08-28T03:31:01.607Z,3.80
2022-08-28T03:33:29.795Z,3.90
2022-08-28T03:35:57.890Z,3.70
2022-08-28T03:38:27.527Z,3.70
2022-08-28T03:40:55.521Z,3.77
2022-08-28T03:43:25.568Z,3.53
2022-08-28T03:45:59.311Z,3.60
2022-08-28T03:48:28.537Z,3.67
2022-08-28T03:50:57.077Z,3.93
2022-08-28T03:53:29.084Z,3.53
2022-08-28T03:55:57.962Z,3.77
2022-08-28T03:58:27.273Z,3.70
2022-08-28T04:00:55.562Z,3.50
2022-08-28T04:03:23.610Z,3.80
2022-08-28T04:05:51.987Z,3.43
2022-08-28T04:08:22.636Z,3.83
2022-08-28T04:10:52.503Z,3.10
2022-08-28T04:13:22.213Z,4.50
2022-08-28T04:15:58.288Z,3.90
2022-08-28T04:18:26.411Z,3.50
2022-08-28T04:21:02.502Z,3.47
2022-08-28T04:23:30.632Z,3.47
2022-08-28T04:26:00.361Z,3.80
2022-08-28T04:28:28.691Z,4.33
2022-08-28T04:30:56.870Z,3.77
2022-08-28T04:33:26.901Z,3.50
2022-08-28T04:35:54.912Z,3.90
2022-08-28T04:38:22.934Z,3.53
2022-08-28T04:40:50.832Z,3.80
2022-08-28T04:43:20.081Z,3.43
2022-08-28T04:45:48.004Z,3.67
2022-08-28T04:48:16.054Z,3.27
2022-08-28T04:50:45.257Z,2.97
2022-08-28T04:53:13.698Z,3.60
2022-08-28T04:55:54.253Z,3.57
2022-08-28T04:58:24.602Z,3.40
2022-08-28T05:00:54.164Z,3.73
2022-08-28T05:03:22.752Z,3.20
2022-08-28T05:05:53.066Z,3.47
2022-08-28T05:08:23.232Z,3.47
2022-08-28T05:10:52.287Z,3.67
2022-08-28T05:13:21.041Z,3.40
2022-08-28T05:15:52.817Z,3.70
2022-08-28T05:18:24.075Z,3.23
2022-08-28T05:20:51.992Z,3.23
2022-08-28T05:23:19.921Z,3.50
2022-08-28T05:25:51.011Z,3.33
2022-08-28T05:28:19.685Z,3.70
2022-08-28T05:30:48.053Z,4.07
2022-08-28T05:33:17.372Z,3.47
2022-08-28T05:35:46.520Z,3.63
2022-08-28T05:38:16.731Z,4.27
2022-08-28T05:40:46.208Z,5.90
2022-08-28T05:43:16.483Z,4.67
2022-08-28T05:45:44.896Z,5.83
2022-08-28T05:48:13.189Z,5.60
2022-08-28T05:50:47.200Z,5.47
2022-08-28T05:53:15.665Z,2.90
2022-08-28T05:55:43.609Z,4.23
2022-08-28T05:58:26.436Z,4.97
2022-08-28T06:00:54.354Z,3.10
2022-08-28T06:03:23.062Z,3.07
2022-08-28T06:05:57.581Z,2.97
2022-08-28T06:08:25.475Z,2.77
2022-08-28T06:10:53.348Z,3.33
2022-08-28T06:13:21.600Z,2.80
2022-08-28T06:15:50.133Z,3.10
2022-08-28T06:18:18.910Z,2.80
2022-08-28T06:20:48.046Z,3.07
2022-08-28T06:23:24.159Z,2.90
2022-08-28T06:25:53.076Z,2.77
2022-08-28T06:28:23.075Z,2.90
2022-08-28T06:31:15.737Z,2.83
2022-08-28T06:33:40.204Z,3.13
2022-08-28T06:36:08.796Z,2.67
2022-08-28T06:38:38.130Z,2.40
2022-08-28T06:41:10.080Z,2.93
2022-08-28T06:43:38.523Z,2.30
2022-08-28T06:46:06.718Z,3.03
2022-08-28T06:48:35.009Z,2.43
2022-08-28T06:51:06.055Z,3.00
2022-08-28T06:53:33.942Z,2.70
2022-08-28T06:56:08.418Z,2.47
2022-08-28T06:58:37.876Z,3.10
2022-08-28T07:01:07.971Z,2.30
2022-08-28T07:03:36.377Z,2.77
2022-08-28T07:06:12.561Z,2.97
2022-08-28T07:08:41.739Z,3.10
2022-08-28T07:11:16.027Z,2.33
2022-08-28T07:13:45.039Z,2.25
2022-08-28T07:16:14.107Z,2.42
2022-08-28T07:18:42.323Z,2.42
2022-08-28T07:21:12.426Z,2.30
2022-08-28T07:23:42.154Z,2.30
2022-08-28T07:26:11.708Z,2.25
2022-08-28T07:28:41.041Z,2.55
2022-08-28T07:31:13.019Z,2.50
2022-08-28T07:33:42.019Z,2.70
2022-08-28T07:36:16.081Z,2.45
2022-08-28T07:38:59.299Z,2.55
2022-08-28T07:41:30.381Z,2.38
2022-08-28T07:44:17.689Z,2.35
2022-08-28T07:46:45.699Z,2.25
2022-08-28T07:49:15.536Z,2.50
2022-08-28T07:51:43.704Z,2.40
2022-08-28T07:54:17.724Z,2.85
2022-08-28T07:56:46.357Z,2.30
2022-08-28T07:59:19.212Z,2.60
2022-08-28T08:01:49.099Z,2.40
2022-08-28T08:04:17.586Z,2.63
2022-08-28T08:06:46.876Z,2.45
2022-08-28T08:09:17.666Z,2.72
2022-08-28T08:11:45.925Z,2.30
2022-08-28T08:14:17.978Z,2.30
2022-08-28T08:16:47.430Z,2.00
2022-08-28T08:19:17.606Z,2.20
2022-08-28T08:21:48.448Z,2.75
2022-08-28T08:24:22.588Z,2.33
2022-08-28T08:26:59.204Z,2.40
2022-08-28T08:29:32.528Z,2.47
2022-08-28T08:32:05.887Z,1.92
2022-08-28T08:34:38.779Z,2.08
2022-08-28T08:37:10.671Z,2.33
2022-08-28T08:39:39.058Z,2.28
2022-08-28T08:42:11.815Z,2.20
2022-08-28T08:44:47.991Z,2.25
2022-08-28T08:47:19.779Z,2.00
2022-08-28T08:49:53.368Z,2.03
2022-08-28T08:52:37.578Z,2.50
2022-08-28T08:55:31.466Z,2.33
2022-08-28T08:58:05.205Z,2.20
2022-08-28T09:00:40.603Z,2.25
2022-08-28T09:03:15.318Z,2.30
2022-08-28T09:05:49.020Z,2.60
2022-08-28T09:08:27.629Z,2.22
2022-08-28T09:11:02.445Z,2.50
2022-08-28T09:13:41.198Z,2.25
2022-08-28T09:16:21.754Z,2.20
2022-08-28T09:18:51.002Z,2.45
2022-08-28T09:21:30.386Z,2.40
2022-08-28T09:24:05.870Z,1.95
2022-08-28T09:26:35.743Z,2.45
2022-08-28T09:29:10.344Z,2.70
2022-08-28T09:31:42.390Z,2.85
2022-08-28T09:34:26.241Z,2.58
2022-08-28T09:36:55.417Z,2.88
2022-08-28T09:39:25.697Z,2.45
2022-08-28T09:42:17.062Z,2.75
2022-08-28T09:44:51.330Z,2.15
2022-08-28T09:47:46.168Z,2.30
2022-08-28T09:50:37.010Z,2.42
2022-08-28T09:53:21.669Z,2.00
2022-08-28T09:55:58.002Z,2.20
2022-08-28T09:58:34.934Z,2.33
2022-08-28T10:01:11.492Z,2.33
2022-08-28T10:03:50.000Z,2.33
2022-08-28T10:06:24.744Z,2.22
2022-08-28T10:09:05.346Z,2.63
2022-08-28T10:11:44.496Z,2.17
2022-08-28T10:14:29.338Z,2.13
2022-08-28T10:17:07.678Z,2.13
2022-08-28T10:19:51.049Z,2.47
2022-08-28T10:22:29.756Z,2.50
2022-08-28T10:25:08.215Z,2.10
2022-08-28T10:27:53.456Z,2.28
2022-08-28T10:30:24.727Z,2.50
2022-08-28T10:33:11.525Z,2.15
2022-08-28T10:35:53.225Z,2.00
2022-08-28T10:38:30.071Z,2.30
2022-08-28T10:41:04.030Z,2.10
2022-08-28T10:43:36.351Z,2.20
2022-08-28T10:46:06.814Z,2.10
2022-08-28T10:48:41.043Z,2.20
2022-08-28T10:51:17.567Z,2.22
2022-08-28T10:53:50.221Z,2.55
2022-08-28T10:56:21.796Z,2.25
2022-08-28T10:58:53.027Z,2.08
2022-08-28T11:01:28.392Z,2.00
2022-08-28T11:03:58.607Z,2.22
2022-08-28T11:06:33.407Z,2.00
2022-08-28T11:09:24.750Z,2.22
2022-08-28T11:12:01.069Z,2.15
2022-08-28T11:14:39.399Z,2.20
2022-08-28T11:17:41.260Z,2.28
2022-08-28T11:20:15.368Z,2.30
2022-08-28T11:22:48.649Z,2.40
2022-08-28T11:25:26.677Z,2.13
2022-08-28T11:28:16.265Z,2.20
2022-08-28T11:30:47.055Z,2.10
2022-08-28T11:33:39.491Z,1.95
2022-08-28T11:36:12.176Z,1.80
2022-08-28T11:39:21.094Z,1.80
2022-08-28T11:42:32.052Z,1.83
2022-08-28T11:45:01.318Z,1.80
2022-08-28T11:47:56.525Z,2.65
2022-08-28T11:50:32.038Z,1.90
2022-08-28T11:53:44.809Z,1.98
2022-08-28T11:56:34.605Z,2.00
2022-08-28T11:59:18.600Z,2.20
2022-08-28T12:01:46.577Z,1.92
2022-08-28T12:04:16.350Z,1.83
2022-08-28T12:07:16.619Z,2.00
2022-08-28T12:09:46.740Z,1.83
2022-08-28T12:12:53.496Z,1.75
2022-08-28T12:15:45.769Z,1.92
2022-08-28T12:18:37.109Z,1.90
2022-08-28T12:21:08.290Z,1.80
2022-08-28T12:23:44.957Z,1.73
2022-08-28T12:26:23.578Z,2.17
2022-08-28T12:28:57.406Z,2.00
2022-08-28T12:32:09.357Z,1.90
2022-08-28T12:34:45.853Z,2.42
2022-08-28T12:37:36.829Z,3.47
2022-08-28T12:40:22.715Z,3.00
2022-08-28T12:42:55.401Z,4.28
2022-08-28T12:45:30.144Z,8.52
2022-08-28T12:48:01.144Z,2.67
2022-08-28T12:50:33.447Z,2.88
2022-08-28T12:53:03.876Z,2.75
2022-08-28T12:55:32.835Z,2.53
2022-08-28T12:58:01.185Z,1.80
2022-08-28T13:00:33.760Z,2.10
2022-08-28T13:03:02.893Z,2.10
2022-08-28T13:05:34.722Z,2.00
2022-08-28T13:08:06.720Z,2.05
2022-08-28T13:10:37.719Z,2.65
2022-08-28T13:13:11.011Z,1.70
2022-08-28T13:15:58.603Z,7.47
2022-08-28T13:18:45.223Z,3.03
2022-08-28T13:21:34.857Z,2.35
2022-08-28T13:24:28.652Z,2.40
2022-08-28T13:27:18.293Z,2.53
2022-08-28T13:30:00.632Z,2.72
2022-08-28T13:32:32.285Z,2.45
2022-08-28T13:35:34.408Z,4.65
2022-08-28T13:38:04.684Z,1.83
2022-08-28T13:43:25.371Z,1.88
2022-08-28T13:45:54.263Z,2.60
2022-08-28T13:48:25.788Z,2.63
2022-08-28T13:50:59.657Z,2.35
2022-08-28T13:53:27.650Z,2.20
2022-08-28T13:55:55.810Z,2.50
2022-08-28T13:58:24.134Z,2.13
2022-08-28T14:00:52.656Z,3.95
2022-08-28T14:03:38.865Z,1.90
2022-08-28T14:06:11.599Z,2.35
2022-08-28T14:08:40.915Z,2.80
2022-08-28T14:11:12.693Z,1.58
2022-08-28T14:13:46.965Z,2.35
2022-08-28T14:16:24.111Z,3.47
2022-08-28T14:18:52.760Z,2.22
2022-08-28T14:21:22.172Z,3.63
2022-08-28T14:23:50.634Z,2.53
2022-08-28T14:26:18.554Z,2.83
2022-08-28T14:28:46.733Z,2.72
2022-08-28T14:31:15.039Z,2.30
2022-08-28T14:33:45.210Z,2.45
2022-08-28T14:36:16.449Z,1.67
2022-08-28T14:38:45.693Z,1.75
2022-08-28T14:41:14.799Z,3.35
2022-08-28T14:43:42.838Z,2.20
2022-08-28T14:46:15.996Z,2.08
2022-08-28T14:48:44.103Z,2.67
2022-08-28T14:51:12.178Z,1.92
2022-08-28T14:53:40.024Z,2.63
2022-08-28T14:56:10.808Z,2.05
2022-08-28T14:58:39.090Z,2.15
2022-08-28T15:01:07.364Z,2.17
2022-08-28T15:03:35.770Z,2.17
2022-08-28T15:06:05.562Z,1.80
2022-08-28T15:08:33.457Z,1.75
2022-08-28T15:11:07.266Z,1.45
2022-08-28T15:13:36.620Z,1.65
2022-08-28T15:16:15.774Z,1.98
2022-08-28T15:18:45.704Z,1.80
2022-08-28T15:21:16.728Z,1.65
2022-08-28T15:23:44.697Z,1.77
2022-08-28T15:26:15.489Z,1.98
2022-08-28T15:28:47.538Z,1.98
2022-08-28T15:31:16.453Z,1.60
2022-08-28T15:33:45.480Z,1.70
2022-08-28T15:36:13.508Z,1.75
2022-08-28T15:38:59.239Z,1.70
2022-08-28T15:41:27.254Z,1.70
2022-08-28T15:44:00.120Z,1.70
2022-08-28T15:46:31.501Z,1.63
2022-08-28T15:48:59.488Z,2.17
2022-08-28T15:51:28.022Z,1.80
2022-08-28T15:53:55.938Z,2.00
2022-08-28T15:56:23.856Z,1.90
2022-08-28T15:58:53.037Z,1.67
2022-08-28T16:01:25.414Z,1.60
2022-08-28T16:03:53.656Z,2.00
2022-08-28T16:06:22.292Z,1.90
2022-08-28T16:08:51.151Z,1.60
2022-08-28T16:11:21.798Z,1.70
2022-08-28T16:13:50.345Z,2.10
2022-08-28T16:16:18.529Z,1.63
2022-08-28T16:18:48.325Z,1.80
2022-08-28T16:21:16.844Z,1.98
2022-08-28T16:23:44.788Z,2.00
2022-08-28T16:26:15.735Z,1.80
2022-08-28T16:28:44.716Z,1.65
2022-08-28T16:31:18.922Z,1.88
2022-08-28T16:33:49.841Z,1.70
2022-08-28T16:36:18.776Z,1.40
2022-08-28T16:39:00.379Z,2.15
2022-08-28T16:41:32.159Z,2.05
2022-08-28T16:44:00.094Z,2.10
2022-08-28T16:46:29.064Z,1.70
2022-08-28T16:49:00.719Z,2.10
2022-08-28T16:51:29.885Z,1.75
2022-08-28T16:53:58.558Z,2.08
2022-08-28T16:56:26.679Z,1.90
2022-08-28T16:58:54.634Z,2.10
2022-08-28T17:01:24.150Z,1.73
2022-08-28T17:03:53.103Z,2.00
2022-08-28T17:06:25.204Z,2.10
2022-08-28T17:08:56.599Z,2.17
2022-08-28T17:11:25.925Z,1.80
2022-08-28T17:13:54.070Z,1.77
2022-08-28T17:16:24.367Z,1.90
2022-08-28T17:18:53.495Z,1.90
2022-08-28T17:21:42.083Z,2.00
2022-08-28T17:24:12.546Z,2.17
2022-08-28T17:26:41.099Z,2.50
2022-08-28T17:29:09.541Z,2.15
2022-08-28T17:31:37.684Z,1.80
2022-08-28T17:34:07.759Z,2.05
2022-08-28T17:36:38.005Z,2.10
2022-08-28T17:39:08.132Z,2.13
2022-08-28T17:41:36.470Z,1.92
2022-08-28T17:44:05.316Z,1.73
2022-08-28T17:46:37.537Z,1.80
2022-08-28T17:49:07.093Z,2.10
2022-08-28T17:51:42.363Z,1.67
2022-08-28T17:54:12.371Z,1.90
2022-08-28T17:56:40.326Z,2.00
2022-08-28T17:59:08.200Z,2.08
2022-08-28T18:01:36.307Z,1.85
2022-08-28T18:04:05.226Z,1.90
2022-08-28T18:06:33.920Z,2.00
2022-08-28T18:09:03.235Z,1.80
2022-08-28T18:11:31.434Z,1.80
2022-08-28T18:13:59.800Z,1.80
2022-08-28T18:16:31.474Z,2.10
2022-08-28T18:19:00.140Z,2.00
2022-08-28T18:21:28.642Z,1.90
2022-08-28T18:23:56.782Z,1.90
2022-08-28T18:26:26.319Z,1.67
2022-08-28T18:28:54.359Z,2.03
2022-08-28T18:31:22.358Z,2.13
2022-08-28T18:33:50.494Z,2.10
2022-08-28T18:36:18.441Z,1.80
2022-08-28T18:38:47.165Z,1.88
2022-08-28T18:41:15.355Z,1.90
2022-08-28T18:43:44.597Z,2.00
2022-08-28T18:46:14.278Z,1.88
2022-08-28T18:48:43.463Z,2.10
2022-08-28T18:51:13.175Z,1.90
2022-08-28T18:53:43.201Z,1.92
2022-08-28T18:56:12.623Z,2.08
2022-08-28T18:58:41.751Z,1.90
2022-08-28T19:01:11.297Z,1.83
2022-08-28T19:03:39.330Z,2.05
2022-08-28T19:06:07.913Z,1.90
2022-08-28T19:08:36.708Z,1.75
2022-08-28T19:11:08.785Z,1.90
2022-08-28T19:13:37.458Z,2.30
2022-08-28T19:16:06.704Z,2.08
2022-08-28T19:18:36.027Z,2.05
2022-08-28T19:21:08.809Z,1.85
2022-08-28T19:23:36.758Z,1.73
2022-08-28T19:26:06.646Z,2.00
2022-08-28T19:28:35.373Z,1.73
2022-08-28T19:31:03.978Z,2.20
2022-08-28T19:33:32.419Z,2.08
2022-08-28T19:36:02.424Z,1.98
2022-08-28T19:38:31.080Z,1.90
2022-08-28T19:40:59.213Z,1.98
2022-08-28T19:43:42.723Z,1.95
2022-08-28T19:46:18.459Z,2.00
2022-08-28T19:48:48.858Z,1.90
2022-08-28T19:51:23.287Z,2.00
2022-08-28T19:53:57.969Z,1.55
2022-08-28T19:56:28.043Z,1.80
2022-08-28T19:58:58.470Z,1.88
2022-08-28T20:01:29.481Z,1.80
2022-08-28T20:03:58.035Z,1.90
2022-08-28T20:06:27.621Z,1.60
2022-08-28T20:08:55.746Z,1.70
2022-08-28T20:11:30.601Z,1.60
2022-08-28T20:14:04.269Z,1.90
2022-08-28T20:16:34.834Z,1.60
2022-08-28T20:19:03.969Z,2.00
2022-08-28T20:21:37.067Z,1.80
2022-08-28T20:24:07.681Z,1.67
2022-08-28T20:26:36.366Z,1.60
2022-08-28T20:29:05.983Z,1.60
2022-08-28T20:31:34.331Z,1.70
2022-08-28T20:34:02.311Z,1.80
2022-08-28T20:36:30.251Z,1.55
2022-08-28T20:39:00.086Z,1.63
2022-08-28T20:41:28.474Z,1.70
2022-08-28T20:43:56.354Z,1.25
2022-08-28T20:46:25.527Z,1.50
2022-08-28T20:48:53.428Z,1.70
2022-08-28T20:51:41.535Z,1.80
2022-08-28T20:54:10.845Z,1.63
2022-08-28T20:56:38.946Z,1.50
2022-08-28T20:59:07.095Z,1.52
2022-08-28T21:01:35.045Z,1.50
2022-08-28T21:04:03.549Z,1.73
2022-08-28T21:06:32.165Z,1.63
2022-08-28T21:09:00.076Z,1.60
2022-08-28T21:11:29.673Z,1.20
2022-08-28T21:13:57.572Z,1.67
2022-08-28T21:16:25.513Z,1.30
2022-08-28T21:19:14.869Z,1.45
2022-08-28T21:21:41.776Z,1.40
2022-08-28T21:24:11.496Z,1.40
2022-08-28T21:26:43.205Z,1.65
2022-08-28T21:29:12.164Z,1.60
2022-08-28T21:31:41.596Z,1.10
2022-08-28T21:34:10.381Z,1.40
2022-08-28T21:36:39.282Z,1.33
2022-08-28T21:39:07.210Z,1.35
2022-08-28T21:41:35.185Z,1.55
2022-08-28T21:44:06.047Z,1.58
2022-08-28T21:46:34.369Z,1.42
2022-08-28T21:49:02.481Z,1.55
2022-08-28T21:51:30.445Z,1.58
2022-08-28T21:53:58.293Z,1.75
2022-08-28T21:56:28.899Z,1.50
2022-08-28T21:58:57.817Z,1.50
2022-08-28T22:01:27.629Z,1.30
2022-08-28T22:03:57.088Z,1.50
2022-08-28T22:06:27.147Z,1.40
2022-08-28T22:08:56.407Z,1.70
2022-08-28T22:11:25.427Z,1.50
2022-08-28T22:13:53.783Z,1.60
2022-08-28T22:16:21.955Z,1.70
2022-08-28T22:18:51.383Z,1.50
2022-08-28T22:21:40.030Z,1.90
2022-08-28T22:24:09.075Z,1.83
2022-08-28T22:26:37.700Z,1.33
2022-08-28T22:29:05.885Z,1.90
2022-08-28T22:31:34.114Z,1.58
2022-08-28T22:34:06.606Z,1.80
2022-08-28T22:36:34.488Z,1.40
2022-08-28T22:39:02.334Z,1.42
2022-08-28T22:41:31.574Z,1.58
2022-08-28T22:43:59.505Z,1.48
2022-08-28T22:46:28.219Z,1.40
2022-08-28T22:48:56.866Z,1.48
2022-08-28T22:51:26.148Z,1.50
2022-08-28T22:53:54.349Z,1.38
2022-08-28T22:56:22.744Z,1.38
2022-08-28T22:58:50.728Z,1.52
2022-08-28T23:01:21.923Z,1.48
2022-08-28T23:03:50.062Z,1.42
2022-08-28T23:06:18.514Z,1.48
2022-08-28T23:08:47.876Z,1.48
2022-08-28T23:11:17.323Z,1.77
2022-08-28T23:13:46.741Z,1.55
2022-08-28T23:16:16.586Z,1.75
2022-08-28T23:19:06.504Z,1.40
2022-08-28T23:21:32.405Z,1.63
2022-08-28T23:24:01.744Z,1.77
2022-08-28T23:26:29.613Z,1.20
2022-08-28T23:28:57.700Z,1.75
2022-08-28T23:31:25.621Z,1.57
2022-08-28T23:33:55.029Z,1.57
2022-08-28T23:36:23.541Z,1.40
2022-08-28T23:38:51.630Z,1.70
2022-08-28T23:41:21.289Z,1.48
2022-08-28T23:43:50.255Z,1.35
2022-08-28T23:46:19.188Z,1.40
2022-08-28T23:48:49.711Z,1.33
2022-08-28T23:51:17.999Z,1.17
2022-08-28T23:53:46.237Z,1.50
2022-08-28T23:56:15.659Z,1.40
2022-08-28T23:58:46.273Z,1.60
